sensor_id;sensor_type;location;lat;lon;timestamp;P1;durP1;ratioP1;P2;durP2;ratioP2
80625;SDS011;69982;51.758;5.784;2023-05-10T00:00:25;18.40;;;11.20;;
80625;SDS011;69982;51.758;5.784;2023-05-10T00:03:08;20.50;;;10.80;;
80625;SDS011;69982;51.758;5.784;2023-05-10T00:05:38;17.10;;;11.00;;
80625;SDS011;69982;51.758;5.784;2023-05-10T00:08:06;17.00;;;9.80;;
80625;SDS011;69982;51.758;5.784;2023-05-10T00:10:36;17.80;;;10.70;;
80625;SDS011;69982;51.758;5.784;2023-05-10T00:13:05;19.70;;;9.90;;
80625;SDS011;69982;51.758;5.784;2023-05-10T00:15:34;17.20;;;10.80;;
80625;SDS011;69982;51.758;5.784;2023-05-10T00:18:02;19.40;;;11.40;;
80625;SDS011;69982;51.758;5.784;2023-05-10T00:20:31;18.50;;;11.30;;
80625;SDS011;69982;51.758;5.784;2023-05-10T00:22:59;17.40;;;11.10;;
80625;SDS011;69982;51.758;5.784;2023-05-10T00:25:28;18.20;;;11.20;;
80625;SDS011;69982;51.758;5.784;2023-05-10T00:27:56;20.50;;;11.80;;
80625;SDS011;69982;51.758;5.784;2023-05-10T00:32:52;17.10;;;10.10;;
80625;SDS011;69982;51.758;5.784;2023-05-10T00:35:21;17.30;;;10.80;;
80625;SDS011;69982;51.758;5.784;2023-05-10T00:37:50;15.90;;;9.70;;
80625;SDS011;69982;51.758;5.784;2023-05-10T00:40:18;16.60;;;10.10;;
80625;SDS011;69982;51.758;5.784;2023-05-10T00:42:46;20.80;;;10.90;;
80625;SDS011;69982;51.758;5.784;2023-05-10T00:47:42;17.90;;;10.40;;
80625;SDS011;69982;51.758;5.784;2023-05-10T00:50:11;17.70;;;10.30;;
80625;SDS011;69982;51.758;5.784;2023-05-10T00:55:09;21.50;;;11.40;;
80625;SDS011;69982;51.758;5.784;2023-05-10T00:57:39;22.40;;;11.60;;
80625;SDS011;69982;51.758;5.784;2023-05-10T01:00:08;22.80;;;11.30;;
80625;SDS011;69982;51.758;5.784;2023-05-10T01:02:39;20.20;;;12.10;;
80625;SDS011;69982;51.758;5.784;2023-05-10T01:05:09;24.20;;;11.90;;
80625;SDS011;69982;51.758;5.784;2023-05-10T01:07:39;22.10;;;12.20;;
80625;SDS011;69982;51.758;5.784;2023-05-10T01:10:07;23.20;;;12.80;;
80625;SDS011;69982;51.758;5.784;2023-05-10T01:12:38;23.30;;;12.60;;
80625;SDS011;69982;51.758;5.784;2023-05-10T01:15:09;23.70;;;12.10;;
80625;SDS011;69982;51.758;5.784;2023-05-10T01:17:39;25.60;;;13.30;;
80625;SDS011;69982;51.758;5.784;2023-05-10T01:20:10;23.50;;;12.10;;
80625;SDS011;69982;51.758;5.784;2023-05-10T01:28:39;25.40;;;13.10;;
80625;SDS011;69982;51.758;5.784;2023-05-10T01:34:11;24.40;;;13.20;;
80625;SDS011;69982;51.758;5.784;2023-05-10T01:39:32;20.90;;;11.80;;
80625;SDS011;69982;51.758;5.784;2023-05-10T01:42:14;26.00;;;12.10;;
80625;SDS011;69982;51.758;5.784;2023-05-10T01:47:35;22.90;;;13.10;;
80625;SDS011;69982;51.758;5.784;2023-05-10T01:50:15;22.20;;;11.90;;
80625;SDS011;69982;51.758;5.784;2023-05-10T01:52:49;22.40;;;12.50;;
80625;SDS011;69982;51.758;5.784;2023-05-10T01:55:23;25.20;;;13.30;;
80625;SDS011;69982;51.758;5.784;2023-05-10T01:58:18;28.10;;;13.50;;
80625;SDS011;69982;51.758;5.784;2023-05-10T02:03:17;24.30;;;12.10;;
80625;SDS011;69982;51.758;5.784;2023-05-10T02:05:49;24.70;;;11.80;;
80625;SDS011;69982;51.758;5.784;2023-05-10T02:08:20;27.10;;;12.70;;
80625;SDS011;69982;51.758;5.784;2023-05-10T02:10:51;28.60;;;13.80;;
80625;SDS011;69982;51.758;5.784;2023-05-10T02:13:23;24.80;;;10.70;;
80625;SDS011;69982;51.758;5.784;2023-05-10T02:15:53;26.00;;;12.10;;
80625;SDS011;69982;51.758;5.784;2023-05-10T02:18:23;27.70;;;13.50;;
80625;SDS011;69982;51.758;5.784;2023-05-10T02:20:55;27.80;;;14.30;;
80625;SDS011;69982;51.758;5.784;2023-05-10T02:23:25;30.90;;;14.10;;
80625;SDS011;69982;51.758;5.784;2023-05-10T02:25:54;24.60;;;12.00;;
80625;SDS011;69982;51.758;5.784;2023-05-10T02:28:25;32.10;;;13.90;;
80625;SDS011;69982;51.758;5.784;2023-05-10T02:30:56;31.00;;;13.00;;
80625;SDS011;69982;51.758;5.784;2023-05-10T02:33:25;28.80;;;13.50;;
80625;SDS011;69982;51.758;5.784;2023-05-10T02:35:55;36.70;;;14.90;;
80625;SDS011;69982;51.758;5.784;2023-05-10T02:38:24;33.20;;;15.10;;
80625;SDS011;69982;51.758;5.784;2023-05-10T02:40:54;31.00;;;15.90;;
80625;SDS011;69982;51.758;5.784;2023-05-10T02:43:24;36.20;;;14.80;;
80625;SDS011;69982;51.758;5.784;2023-05-10T02:45:53;34.20;;;15.00;;
80625;SDS011;69982;51.758;5.784;2023-05-10T02:48:22;37.70;;;16.90;;
80625;SDS011;69982;51.758;5.784;2023-05-10T02:50:51;35.60;;;15.30;;
80625;SDS011;69982;51.758;5.784;2023-05-10T02:53:23;33.30;;;15.70;;
80625;SDS011;69982;51.758;5.784;2023-05-10T02:56:01;33.10;;;16.60;;
80625;SDS011;69982;51.758;5.784;2023-05-10T02:58:37;35.80;;;16.00;;
80625;SDS011;69982;51.758;5.784;2023-05-10T03:03:36;34.90;;;16.50;;
80625;SDS011;69982;51.758;5.784;2023-05-10T03:06:04;35.50;;;15.40;;
80625;SDS011;69982;51.758;5.784;2023-05-10T03:08:33;37.20;;;15.50;;
80625;SDS011;69982;51.758;5.784;2023-05-10T03:11:20;35.20;;;15.80;;
80625;SDS011;69982;51.758;5.784;2023-05-10T03:14:01;35.40;;;15.70;;
80625;SDS011;69982;51.758;5.784;2023-05-10T03:17:05;34.20;;;16.60;;
80625;SDS011;69982;51.758;5.784;2023-05-10T03:19:51;37.10;;;15.60;;
80625;SDS011;69982;51.758;5.784;2023-05-10T03:22:39;35.10;;;17.40;;
80625;SDS011;69982;51.758;5.784;2023-05-10T03:25:11;36.10;;;17.60;;
80625;SDS011;69982;51.758;5.784;2023-05-10T03:27:41;33.70;;;17.40;;
80625;SDS011;69982;51.758;5.784;2023-05-10T03:30:12;38.50;;;16.00;;
80625;SDS011;69982;51.758;5.784;2023-05-10T03:32:41;33.60;;;16.10;;
80625;SDS011;69982;51.758;5.784;2023-05-10T03:35:10;31.50;;;14.70;;
80625;SDS011;69982;51.758;5.784;2023-05-10T03:37:41;32.60;;;16.60;;
80625;SDS011;69982;51.758;5.784;2023-05-10T03:40:09;41.00;;;16.70;;
80625;SDS011;69982;51.758;5.784;2023-05-10T03:42:38;35.40;;;17.30;;
80625;SDS011;69982;51.758;5.784;2023-05-10T03:45:07;36.30;;;16.90;;
80625;SDS011;69982;51.758;5.784;2023-05-10T03:47:37;35.60;;;17.30;;
80625;SDS011;69982;51.758;5.784;2023-05-10T03:50:06;33.10;;;16.40;;
80625;SDS011;69982;51.758;5.784;2023-05-10T03:52:35;36.20;;;16.80;;
80625;SDS011;69982;51.758;5.784;2023-05-10T03:55:05;33.80;;;17.40;;
80625;SDS011;69982;51.758;5.784;2023-05-10T03:57:34;40.90;;;18.60;;
80625;SDS011;69982;51.758;5.784;2023-05-10T04:00:03;36.00;;;16.80;;
80625;SDS011;69982;51.758;5.784;2023-05-10T04:02:33;39.70;;;17.30;;
80625;SDS011;69982;51.758;5.784;2023-05-10T04:05:02;33.30;;;16.10;;
80625;SDS011;69982;51.758;5.784;2023-05-10T04:07:31;31.90;;;16.60;;
80625;SDS011;69982;51.758;5.784;2023-05-10T04:09:59;33.00;;;16.00;;
80625;SDS011;69982;51.758;5.784;2023-05-10T04:12:27;35.40;;;19.00;;
80625;SDS011;69982;51.758;5.784;2023-05-10T04:14:55;35.50;;;18.50;;
80625;SDS011;69982;51.758;5.784;2023-05-10T04:17:23;36.40;;;18.30;;
80625;SDS011;69982;51.758;5.784;2023-05-10T04:19:52;38.50;;;19.20;;
80625;SDS011;69982;51.758;5.784;2023-05-10T04:22:23;39.40;;;19.30;;
80625;SDS011;69982;51.758;5.784;2023-05-10T04:24:51;37.20;;;18.80;;
80625;SDS011;69982;51.758;5.784;2023-05-10T04:27:19;34.60;;;18.00;;
80625;SDS011;69982;51.758;5.784;2023-05-10T04:29:48;37.60;;;18.80;;
80625;SDS011;69982;51.758;5.784;2023-05-10T04:32:16;40.00;;;19.10;;
80625;SDS011;69982;51.758;5.784;2023-05-10T04:37:14;40.50;;;20.00;;
80625;SDS011;69982;51.758;5.784;2023-05-10T04:39:43;31.30;;;15.30;;
80625;SDS011;69982;51.758;5.784;2023-05-10T04:42:12;41.10;;;20.60;;
80625;SDS011;69982;51.758;5.784;2023-05-10T04:44:42;37.40;;;18.60;;
80625;SDS011;69982;51.758;5.784;2023-05-10T04:47:11;37.00;;;18.30;;
80625;SDS011;69982;51.758;5.784;2023-05-10T04:49:40;32.70;;;15.70;;
80625;SDS011;69982;51.758;5.784;2023-05-10T04:52:09;35.70;;;16.80;;
80625;SDS011;69982;51.758;5.784;2023-05-10T04:54:39;32.70;;;18.50;;
80625;SDS011;69982;51.758;5.784;2023-05-10T04:57:08;33.60;;;17.10;;
80625;SDS011;69982;51.758;5.784;2023-05-10T04:59:37;39.80;;;18.80;;
80625;SDS011;69982;51.758;5.784;2023-05-10T05:02:07;30.10;;;15.80;;
80625;SDS011;69982;51.758;5.784;2023-05-10T05:04:36;28.20;;;15.10;;
80625;SDS011;69982;51.758;5.784;2023-05-10T05:07:05;33.60;;;17.20;;
80625;SDS011;69982;51.758;5.784;2023-05-10T05:09:34;31.00;;;17.70;;
80625;SDS011;69982;51.758;5.784;2023-05-10T05:12:02;35.80;;;17.50;;
80625;SDS011;69982;51.758;5.784;2023-05-10T05:14:31;42.10;;;19.40;;
80625;SDS011;69982;51.758;5.784;2023-05-10T05:17:00;39.40;;;19.20;;
80625;SDS011;69982;51.758;5.784;2023-05-10T05:21:59;39.70;;;17.50;;
80625;SDS011;69982;51.758;5.784;2023-05-10T05:24:34;35.10;;;18.50;;
80625;SDS011;69982;51.758;5.784;2023-05-10T05:27:04;33.50;;;16.50;;
80625;SDS011;69982;51.758;5.784;2023-05-10T05:29:33;38.20;;;17.10;;
80625;SDS011;69982;51.758;5.784;2023-05-10T05:32:02;35.40;;;17.50;;
80625;SDS011;69982;51.758;5.784;2023-05-10T05:34:31;33.10;;;15.70;;
80625;SDS011;69982;51.758;5.784;2023-05-10T05:37:01;31.70;;;17.10;;
80625;SDS011;69982;51.758;5.784;2023-05-10T05:39:29;29.20;;;15.10;;
80625;SDS011;69982;51.758;5.784;2023-05-10T05:41:57;28.30;;;14.10;;
80625;SDS011;69982;51.758;5.784;2023-05-10T05:44:26;30.40;;;13.70;;
80625;SDS011;69982;51.758;5.784;2023-05-10T05:46:56;28.90;;;13.70;;
80625;SDS011;69982;51.758;5.784;2023-05-10T05:49:25;31.10;;;15.50;;
80625;SDS011;69982;51.758;5.784;2023-05-10T05:51:53;30.40;;;14.20;;
80625;SDS011;69982;51.758;5.784;2023-05-10T05:54:21;34.00;;;16.60;;
80625;SDS011;69982;51.758;5.784;2023-05-10T05:56:49;29.90;;;15.30;;
80625;SDS011;69982;51.758;5.784;2023-05-10T05:59:18;34.20;;;16.10;;
80625;SDS011;69982;51.758;5.784;2023-05-10T06:04:15;31.70;;;15.70;;
80625;SDS011;69982;51.758;5.784;2023-05-10T06:06:43;31.50;;;16.20;;
80625;SDS011;69982;51.758;5.784;2023-05-10T06:09:12;36.10;;;18.70;;
80625;SDS011;69982;51.758;5.784;2023-05-10T06:11:41;31.50;;;15.80;;
80625;SDS011;69982;51.758;5.784;2023-05-10T06:14:09;22.40;;;11.30;;
80625;SDS011;69982;51.758;5.784;2023-05-10T06:16:37;31.10;;;15.20;;
80625;SDS011;69982;51.758;5.784;2023-05-10T06:19:07;33.50;;;15.60;;
80625;SDS011;69982;51.758;5.784;2023-05-10T06:21:36;29.30;;;15.50;;
80625;SDS011;69982;51.758;5.784;2023-05-10T06:24:05;33.80;;;16.00;;
80625;SDS011;69982;51.758;5.784;2023-05-10T06:26:34;32.80;;;15.70;;
80625;SDS011;69982;51.758;5.784;2023-05-10T06:29:03;35.60;;;16.00;;
80625;SDS011;69982;51.758;5.784;2023-05-10T06:34:00;32.80;;;15.10;;
80625;SDS011;69982;51.758;5.784;2023-05-10T06:36:28;37.90;;;17.00;;
80625;SDS011;69982;51.758;5.784;2023-05-10T06:41:24;34.30;;;15.30;;
80625;SDS011;69982;51.758;5.784;2023-05-10T06:43:53;33.90;;;16.50;;
80625;SDS011;69982;51.758;5.784;2023-05-10T06:46:20;33.70;;;16.60;;
80625;SDS011;69982;51.758;5.784;2023-05-10T06:48:49;34.60;;;14.50;;
80625;SDS011;69982;51.758;5.784;2023-05-10T06:51:18;34.90;;;15.30;;
80625;SDS011;69982;51.758;5.784;2023-05-10T06:53:49;29.30;;;13.60;;
80625;SDS011;69982;51.758;5.784;2023-05-10T06:56:17;37.30;;;16.60;;
80625;SDS011;69982;51.758;5.784;2023-05-10T06:58:45;35.40;;;16.20;;
80625;SDS011;69982;51.758;5.784;2023-05-10T07:01:14;30.80;;;15.80;;
80625;SDS011;69982;51.758;5.784;2023-05-10T07:03:43;28.80;;;12.40;;
80625;SDS011;69982;51.758;5.784;2023-05-10T07:06:12;34.80;;;15.40;;
80625;SDS011;69982;51.758;5.784;2023-05-10T07:08:49;29.40;;;14.80;;
80625;SDS011;69982;51.758;5.784;2023-05-10T07:11:17;33.40;;;15.70;;
80625;SDS011;69982;51.758;5.784;2023-05-10T07:13:46;32.60;;;15.40;;
80625;SDS011;69982;51.758;5.784;2023-05-10T07:16:15;30.40;;;15.30;;
80625;SDS011;69982;51.758;5.784;2023-05-10T07:18:45;27.20;;;14.40;;
80625;SDS011;69982;51.758;5.784;2023-05-10T07:21:14;26.10;;;13.60;;
80625;SDS011;69982;51.758;5.784;2023-05-10T07:23:42;30.20;;;15.60;;
80625;SDS011;69982;51.758;5.784;2023-05-10T07:26:12;30.70;;;15.90;;
80625;SDS011;69982;51.758;5.784;2023-05-10T07:28:40;31.80;;;15.40;;
80625;SDS011;69982;51.758;5.784;2023-05-10T07:31:09;29.40;;;13.80;;
80625;SDS011;69982;51.758;5.784;2023-05-10T07:33:37;26.50;;;13.60;;
80625;SDS011;69982;51.758;5.784;2023-05-10T07:36:07;28.50;;;13.60;;
80625;SDS011;69982;51.758;5.784;2023-05-10T07:38:35;30.80;;;15.90;;
80625;SDS011;69982;51.758;5.784;2023-05-10T07:41:05;33.40;;;16.20;;
80625;SDS011;69982;51.758;5.784;2023-05-10T07:43:34;35.10;;;16.50;;
80625;SDS011;69982;51.758;5.784;2023-05-10T07:46:04;32.20;;;15.80;;
80625;SDS011;69982;51.758;5.784;2023-05-10T07:48:34;38.20;;;16.40;;
80625;SDS011;69982;51.758;5.784;2023-05-10T07:51:02;37.60;;;16.90;;
80625;SDS011;69982;51.758;5.784;2023-05-10T07:53:31;32.80;;;16.00;;
80625;SDS011;69982;51.758;5.784;2023-05-10T07:56:19;36.90;;;18.10;;
80625;SDS011;69982;51.758;5.784;2023-05-10T07:58:57;35.20;;;16.90;;
80625;SDS011;69982;51.758;5.784;2023-05-10T08:01:29;43.20;;;18.90;;
80625;SDS011;69982;51.758;5.784;2023-05-10T08:04:01;38.70;;;17.90;;
80625;SDS011;69982;51.758;5.784;2023-05-10T08:06:30;35.40;;;13.90;;
80625;SDS011;69982;51.758;5.784;2023-05-10T08:08:59;35.20;;;19.00;;
80625;SDS011;69982;51.758;5.784;2023-05-10T08:11:27;40.10;;;18.70;;
80625;SDS011;69982;51.758;5.784;2023-05-10T08:13:56;36.90;;;18.30;;
80625;SDS011;69982;51.758;5.784;2023-05-10T08:18:53;37.70;;;17.80;;
80625;SDS011;69982;51.758;5.784;2023-05-10T08:21:23;35.70;;;17.30;;
80625;SDS011;69982;51.758;5.784;2023-05-10T08:23:51;34.30;;;16.00;;
80625;SDS011;69982;51.758;5.784;2023-05-10T08:26:19;33.90;;;16.90;;
80625;SDS011;69982;51.758;5.784;2023-05-10T08:28:50;33.60;;;15.40;;
80625;SDS011;69982;51.758;5.784;2023-05-10T08:31:19;32.70;;;16.60;;
80625;SDS011;69982;51.758;5.784;2023-05-10T08:33:48;25.60;;;13.30;;
80625;SDS011;69982;51.758;5.784;2023-05-10T08:36:17;30.90;;;16.20;;
80625;SDS011;69982;51.758;5.784;2023-05-10T08:38:50;32.30;;;15.30;;
80625;SDS011;69982;51.758;5.784;2023-05-10T08:41:20;30.20;;;16.80;;
80625;SDS011;69982;51.758;5.784;2023-05-10T08:43:49;32.60;;;16.30;;
80625;SDS011;69982;51.758;5.784;2023-05-10T08:46:19;32.00;;;16.30;;
80625;SDS011;69982;51.758;5.784;2023-05-10T08:48:49;26.40;;;13.70;;
80625;SDS011;69982;51.758;5.784;2023-05-10T08:51:22;31.00;;;16.10;;
80625;SDS011;69982;51.758;5.784;2023-05-10T08:53:56;26.20;;;13.90;;
80625;SDS011;69982;51.758;5.784;2023-05-10T08:56:25;29.40;;;15.60;;
80625;SDS011;69982;51.758;5.784;2023-05-10T08:58:54;33.50;;;15.50;;
80625;SDS011;69982;51.758;5.784;2023-05-10T09:01:23;32.50;;;16.00;;
80625;SDS011;69982;51.758;5.784;2023-05-10T09:03:52;35.50;;;16.20;;
80625;SDS011;69982;51.758;5.784;2023-05-10T09:06:21;31.50;;;15.90;;
80625;SDS011;69982;51.758;5.784;2023-05-10T09:08:52;35.20;;;16.70;;
80625;SDS011;69982;51.758;5.784;2023-05-10T09:11:21;38.20;;;17.20;;
80625;SDS011;69982;51.758;5.784;2023-05-10T09:13:49;32.20;;;15.90;;
80625;SDS011;69982;51.758;5.784;2023-05-10T09:16:20;34.00;;;16.00;;
80625;SDS011;69982;51.758;5.784;2023-05-10T09:18:49;32.80;;;15.60;;
80625;SDS011;69982;51.758;5.784;2023-05-10T09:21:19;30.20;;;15.70;;
80625;SDS011;69982;51.758;5.784;2023-05-10T09:23:48;30.00;;;15.30;;
80625;SDS011;69982;51.758;5.784;2023-05-10T09:26:21;29.90;;;15.00;;
80625;SDS011;69982;51.758;5.784;2023-05-10T09:28:55;28.90;;;14.50;;
80625;SDS011;69982;51.758;5.784;2023-05-10T09:31:42;32.50;;;14.50;;
80625;SDS011;69982;51.758;5.784;2023-05-10T09:34:19;31.90;;;13.60;;
80625;SDS011;69982;51.758;5.784;2023-05-10T09:36:54;26.00;;;12.80;;
80625;SDS011;69982;51.758;5.784;2023-05-10T09:39:33;26.90;;;12.90;;
80625;SDS011;69982;51.758;5.784;2023-05-10T09:42:07;24.20;;;12.30;;
80625;SDS011;69982;51.758;5.784;2023-05-10T09:47:07;23.40;;;11.40;;
80625;SDS011;69982;51.758;5.784;2023-05-10T09:49:35;24.50;;;12.00;;
80625;SDS011;69982;51.758;5.784;2023-05-10T09:52:07;26.40;;;12.10;;
80625;SDS011;69982;51.758;5.784;2023-05-10T09:54:37;24.60;;;12.30;;
80625;SDS011;69982;51.758;5.784;2023-05-10T09:57:05;23.80;;;11.30;;
80625;SDS011;69982;51.758;5.784;2023-05-10T09:59:49;23.40;;;12.40;;
80625;SDS011;69982;51.758;5.784;2023-05-10T10:02:18;24.30;;;11.20;;
80625;SDS011;69982;51.758;5.784;2023-05-10T10:04:48;21.70;;;11.70;;
80625;SDS011;69982;51.758;5.784;2023-05-10T10:07:21;23.80;;;12.10;;
80625;SDS011;69982;51.758;5.784;2023-05-10T10:09:56;22.60;;;12.00;;
80625;SDS011;69982;51.758;5.784;2023-05-10T10:12:26;25.30;;;11.50;;
80625;SDS011;69982;51.758;5.784;2023-05-10T10:15:01;24.60;;;12.60;;
80625;SDS011;69982;51.758;5.784;2023-05-10T10:17:31;18.40;;;8.60;;
80625;SDS011;69982;51.758;5.784;2023-05-10T10:20:03;21.90;;;10.80;;
80625;SDS011;69982;51.758;5.784;2023-05-10T10:22:33;21.70;;;10.10;;
80625;SDS011;69982;51.758;5.784;2023-05-10T10:25:02;19.30;;;9.70;;
80625;SDS011;69982;51.758;5.784;2023-05-10T10:30:43;19.80;;;10.20;;
80625;SDS011;69982;51.758;5.784;2023-05-10T10:35:55;21.40;;;10.50;;
80625;SDS011;69982;51.758;5.784;2023-05-10T10:41:34;14.70;;;8.00;;
80625;SDS011;69982;51.758;5.784;2023-05-10T10:50:08;12.50;;;7.00;;
80625;SDS011;69982;51.758;5.784;2023-05-10T10:52:40;14.30;;;7.50;;
80625;SDS011;69982;51.758;5.784;2023-05-10T10:55:10;14.00;;;7.40;;
80625;SDS011;69982;51.758;5.784;2023-05-10T10:57:47;14.40;;;7.10;;
80625;SDS011;69982;51.758;5.784;2023-05-10T11:02:53;13.20;;;6.40;;
80625;SDS011;69982;51.758;5.784;2023-05-10T11:05:34;11.50;;;6.30;;
80625;SDS011;69982;51.758;5.784;2023-05-10T11:08:15;12.90;;;6.70;;
80625;SDS011;69982;51.758;5.784;2023-05-10T11:13:48;15.00;;;6.60;;
80625;SDS011;69982;51.758;5.784;2023-05-10T11:16:24;12.30;;;6.00;;
80625;SDS011;69982;51.758;5.784;2023-05-10T11:18:56;12.00;;;6.30;;
80625;SDS011;69982;51.758;5.784;2023-05-10T11:21:33;12.60;;;5.90;;
80625;SDS011;69982;51.758;5.784;2023-05-10T11:24:13;11.40;;;5.70;;
80625;SDS011;69982;51.758;5.784;2023-05-10T11:26:42;11.30;;;5.90;;
80625;SDS011;69982;51.758;5.784;2023-05-10T11:29:12;8.40;;;4.50;;
80625;SDS011;69982;51.758;5.784;2023-05-10T11:31:44;9.20;;;5.40;;
80625;SDS011;69982;51.758;5.784;2023-05-10T11:34:24;9.30;;;5.50;;
80625;SDS011;69982;51.758;5.784;2023-05-10T11:37:02;10.90;;;5.00;;
80625;SDS011;69982;51.758;5.784;2023-05-10T11:39:32;8.00;;;4.80;;
80625;SDS011;69982;51.758;5.784;2023-05-10T11:42:01;8.50;;;4.40;;
80625;SDS011;69982;51.758;5.784;2023-05-10T11:44:34;10.40;;;5.40;;
80625;SDS011;69982;51.758;5.784;2023-05-10T11:47:03;11.00;;;4.90;;
80625;SDS011;69982;51.758;5.784;2023-05-10T11:49:33;11.40;;;6.00;;
80625;SDS011;69982;51.758;5.784;2023-05-10T11:52:03;10.90;;;5.40;;
80625;SDS011;69982;51.758;5.784;2023-05-10T11:54:35;9.90;;;5.10;;
80625;SDS011;69982;51.758;5.784;2023-05-10T11:57:04;10.00;;;5.90;;
80625;SDS011;69982;51.758;5.784;2023-05-10T11:59:33;8.20;;;4.70;;
80625;SDS011;69982;51.758;5.784;2023-05-10T12:02:01;9.90;;;4.80;;
80625;SDS011;69982;51.758;5.784;2023-05-10T12:04:31;9.30;;;5.50;;
80625;SDS011;69982;51.758;5.784;2023-05-10T12:07:02;8.00;;;3.90;;
80625;SDS011;69982;51.758;5.784;2023-05-10T12:09:31;8.40;;;4.00;;
80625;SDS011;69982;51.758;5.784;2023-05-10T12:12:07;8.60;;;4.70;;
80625;SDS011;69982;51.758;5.784;2023-05-10T12:14:35;9.60;;;5.20;;
80625;SDS011;69982;51.758;5.784;2023-05-10T12:17:05;9.00;;;4.00;;
80625;SDS011;69982;51.758;5.784;2023-05-10T12:19:37;9.70;;;4.30;;
80625;SDS011;69982;51.758;5.784;2023-05-10T12:22:07;8.00;;;4.50;;
80625;SDS011;69982;51.758;5.784;2023-05-10T12:24:35;8.60;;;5.20;;
80625;SDS011;69982;51.758;5.784;2023-05-10T12:27:09;9.10;;;5.60;;
80625;SDS011;69982;51.758;5.784;2023-05-10T12:29:41;12.20;;;6.20;;
80625;SDS011;69982;51.758;5.784;2023-05-10T12:32:12;8.90;;;5.20;;
80625;SDS011;69982;51.758;5.784;2023-05-10T12:34:41;9.20;;;5.80;;
80625;SDS011;69982;51.758;5.784;2023-05-10T12:37:10;7.80;;;4.90;;
80625;SDS011;69982;51.758;5.784;2023-05-10T12:39:43;9.40;;;5.30;;
80625;SDS011;69982;51.758;5.784;2023-05-10T12:42:15;11.90;;;5.40;;
80625;SDS011;69982;51.758;5.784;2023-05-10T12:44:44;8.70;;;4.90;;
80625;SDS011;69982;51.758;5.784;2023-05-10T12:47:13;9.30;;;5.60;;
80625;SDS011;69982;51.758;5.784;2023-05-10T12:49:42;9.80;;;5.70;;
80625;SDS011;69982;51.758;5.784;2023-05-10T12:52:10;10.20;;;5.40;;
80625;SDS011;69982;51.758;5.784;2023-05-10T12:54:40;10.40;;;6.00;;
80625;SDS011;69982;51.758;5.784;2023-05-10T12:57:08;11.50;;;6.00;;
80625;SDS011;69982;51.758;5.784;2023-05-10T12:59:38;11.10;;;6.70;;
80625;SDS011;69982;51.758;5.784;2023-05-10T13:02:07;13.20;;;7.10;;
80625;SDS011;69982;51.758;5.784;2023-05-10T13:04:38;10.20;;;5.60;;
80625;SDS011;69982;51.758;5.784;2023-05-10T13:07:07;9.40;;;5.10;;
80625;SDS011;69982;51.758;5.784;2023-05-10T13:09:35;8.90;;;5.10;;
80625;SDS011;69982;51.758;5.784;2023-05-10T13:12:04;10.00;;;4.90;;
80625;SDS011;69982;51.758;5.784;2023-05-10T13:14:33;9.20;;;5.40;;
80625;SDS011;69982;51.758;5.784;2023-05-10T13:17:01;9.00;;;5.20;;
80625;SDS011;69982;51.758;5.784;2023-05-10T13:19:30;10.00;;;6.40;;
80625;SDS011;69982;51.758;5.784;2023-05-10T13:21:59;9.60;;;5.60;;
80625;SDS011;69982;51.758;5.784;2023-05-10T13:26:56;9.00;;;5.90;;
80625;SDS011;69982;51.758;5.784;2023-05-10T13:29:24;10.00;;;6.50;;
80625;SDS011;69982;51.758;5.784;2023-05-10T13:31:53;9.40;;;5.30;;
80625;SDS011;69982;51.758;5.784;2023-05-10T13:34:21;8.50;;;5.40;;
80625;SDS011;69982;51.758;5.784;2023-05-10T13:36:49;9.60;;;5.70;;
80625;SDS011;69982;51.758;5.784;2023-05-10T13:39:18;8.60;;;5.50;;
80625;SDS011;69982;51.758;5.784;2023-05-10T13:41:49;8.10;;;4.90;;
80625;SDS011;69982;51.758;5.784;2023-05-10T13:44:17;11.20;;;5.60;;
80625;SDS011;69982;51.758;5.784;2023-05-10T13:46:45;9.10;;;4.90;;
80625;SDS011;69982;51.758;5.784;2023-05-10T13:49:15;9.60;;;4.60;;
80625;SDS011;69982;51.758;5.784;2023-05-10T13:51:43;7.70;;;4.90;;
80625;SDS011;69982;51.758;5.784;2023-05-10T13:56:42;10.10;;;5.60;;
80625;SDS011;69982;51.758;5.784;2023-05-10T13:59:11;8.40;;;6.00;;
80625;SDS011;69982;51.758;5.784;2023-05-10T14:01:40;9.40;;;6.70;;
80625;SDS011;69982;51.758;5.784;2023-05-10T14:04:09;10.10;;;6.80;;
80625;SDS011;69982;51.758;5.784;2023-05-10T14:06:39;10.00;;;6.60;;
80625;SDS011;69982;51.758;5.784;2023-05-10T14:09:07;8.80;;;5.70;;
80625;SDS011;69982;51.758;5.784;2023-05-10T14:11:36;9.60;;;6.20;;
80625;SDS011;69982;51.758;5.784;2023-05-10T14:14:05;9.70;;;7.00;;
80625;SDS011;69982;51.758;5.784;2023-05-10T14:16:35;9.40;;;6.30;;
80625;SDS011;69982;51.758;5.784;2023-05-10T14:19:04;10.00;;;6.90;;
80625;SDS011;69982;51.758;5.784;2023-05-10T14:21:32;9.70;;;7.40;;
80625;SDS011;69982;51.758;5.784;2023-05-10T14:24:01;10.40;;;6.80;;
80625;SDS011;69982;51.758;5.784;2023-05-10T14:26:29;14.20;;;7.50;;
80625;SDS011;69982;51.758;5.784;2023-05-10T14:28:57;9.50;;;6.80;;
80625;SDS011;69982;51.758;5.784;2023-05-10T14:31:26;10.40;;;7.20;;
80625;SDS011;69982;51.758;5.784;2023-05-10T14:33:55;10.10;;;7.00;;
80625;SDS011;69982;51.758;5.784;2023-05-10T14:36:24;9.00;;;6.20;;
80625;SDS011;69982;51.758;5.784;2023-05-10T14:38:53;9.20;;;6.40;;
80625;SDS011;69982;51.758;5.784;2023-05-10T14:41:21;6.50;;;4.70;;
80625;SDS011;69982;51.758;5.784;2023-05-10T14:43:50;8.70;;;6.20;;
80625;SDS011;69982;51.758;5.784;2023-05-10T14:46:19;8.50;;;5.70;;
80625;SDS011;69982;51.758;5.784;2023-05-10T14:51:15;6.90;;;4.20;;
80625;SDS011;69982;51.758;5.784;2023-05-10T14:56:11;4.90;;;2.70;;
80625;SDS011;69982;51.758;5.784;2023-05-10T14:58:40;4.90;;;2.40;;
80625;SDS011;69982;51.758;5.784;2023-05-10T15:01:09;5.80;;;2.50;;
80625;SDS011;69982;51.758;5.784;2023-05-10T15:03:38;6.30;;;3.30;;
80625;SDS011;69982;51.758;5.784;2023-05-10T15:06:07;6.20;;;2.90;;
80625;SDS011;69982;51.758;5.784;2023-05-10T15:08:37;5.50;;;3.20;;
80625;SDS011;69982;51.758;5.784;2023-05-10T15:11:05;4.80;;;3.10;;
80625;SDS011;69982;51.758;5.784;2023-05-10T15:13:34;5.50;;;2.50;;
80625;SDS011;69982;51.758;5.784;2023-05-10T15:16:02;4.00;;;2.40;;
80625;SDS011;69982;51.758;5.784;2023-05-10T15:18:31;5.40;;;2.90;;
80625;SDS011;69982;51.758;5.784;2023-05-10T15:21:00;5.50;;;2.70;;
80625;SDS011;69982;51.758;5.784;2023-05-10T15:23:28;4.80;;;2.90;;
80625;SDS011;69982;51.758;5.784;2023-05-10T15:25:59;5.20;;;3.10;;
80625;SDS011;69982;51.758;5.784;2023-05-10T15:28:29;5.40;;;3.30;;
80625;SDS011;69982;51.758;5.784;2023-05-10T15:30:59;4.20;;;2.60;;
80625;SDS011;69982;51.758;5.784;2023-05-10T15:33:29;5.50;;;3.40;;
80625;SDS011;69982;51.758;5.784;2023-05-10T15:35:57;5.20;;;2.90;;
80625;SDS011;69982;51.758;5.784;2023-05-10T15:38:25;5.30;;;3.20;;
80625;SDS011;69982;51.758;5.784;2023-05-10T15:40:55;6.10;;;3.50;;
80625;SDS011;69982;51.758;5.784;2023-05-10T15:43:26;6.60;;;4.30;;
80625;SDS011;69982;51.758;5.784;2023-05-10T15:45:54;6.90;;;4.10;;
80625;SDS011;69982;51.758;5.784;2023-05-10T15:48:23;8.80;;;4.10;;
80625;SDS011;69982;51.758;5.784;2023-05-10T15:50:52;7.30;;;4.60;;
80625;SDS011;69982;51.758;5.784;2023-05-10T15:53:21;7.10;;;4.10;;
80625;SDS011;69982;51.758;5.784;2023-05-10T15:55:50;7.00;;;4.50;;
80625;SDS011;69982;51.758;5.784;2023-05-10T15:58:18;6.50;;;4.60;;
80625;SDS011;69982;51.758;5.784;2023-05-10T16:00:47;8.80;;;6.10;;